Airfield :
LOGIN :

Register | Disclaimer

   EN    FR    IT 

 










Legend :    VFR   Marginal VFR   IFR   Intensive IFR   Very Intensive IFR
Visi :
Ceiling :
>= 8 km
>= 3000ft
5 to 8 km
1000 to 3000 ft
1500m to 5 km
500 to 1000 ft
800 to 1500m
200 to 500 ft
< 800m
< 200 ft
Symbols :   Thunderstorms  Fog  Heavy snow  Heavy precipitations  Wind > 20 kt
SIGMETs :     Misc.  Thunderstorms  Icing  Turbulence  Mountain Waves  Volcanic Ashes






- Airport Elevation : 348 ft
- IATA code : STN


EGSS - London Stansted

CURRENT METAR :
  • 280450Z 23005KT 0500 R22/0750U FG SCT001 BKN013 03/02 Q1019

EXPIRED METARs :
  • 280420Z 22003KT 1000 R22/1400D BR NSC 04/03 Q1019
  • 280350Z AUTO 25003KT 5000 BR NCD 04/04 Q1019
  • 280320Z AUTO 27003KT 7000 NCD 05/04 Q1019
  • 280250Z AUTO VRB02KT 9999 SCT047 05/04 Q1019
  • 280220Z AUTO 22004KT 9000 BKN047 04/04 Q1019
  • 280150Z AUTO 23004KT 9999 BKN048 05/04 Q1019
  • 280120Z AUTO 22003KT 9999 BKN048 06/04 Q1019
  • 280050Z AUTO 25004KT 9999 OVC045 06/05 Q1019
  • 280020Z AUTO 23005KT 9999 FEW008 OVC044 07/05 Q1019

TAF AMD TAF EGSS
Valid from the 28 at 02:00 until the 29 at 06:00 UTC


280200Z 2802/2906 23010KT 9999 BKN030
BECMG 2802/2805 VRB02KT 3000 BR BKN002
PROB40 2802/2809 0300 FG VV///
BECMG 2809/2811 19010KT 9999 NSW SCT020
PROB30
TEMPO 2811/2814 BKN014
BECMG 2817/2820 OVC006
TEMPO 2818/2903 4000 RADZ OVC003
BECMG 2900/2903 BKN012
TEMPO 2903/2906 20015G25KT 6000 -DZ BKN008
ATIS : +44 1279 669 325



MET'MAP, your aeronautical weather chart ! - Copyright ORBIFLY December 2007 - Disclaimer

ORBIFLY MET'MAP TEAM :

Programming & Development : Alexandra Zaïnal
Original concept : Baudouin d'Aumeries
Technical & hardware support : Manuel Goepfert
Assistance : Marc-Olivier Méhu




SOURCES & CREDITS :

   NOAA